sensor_id;sensor_type;location;lat;lon;timestamp;P1;durP1;ratioP1;P2;durP2;ratioP2
55288;SDS011;41154;45.394;5.734;2024-03-23T00:52:37;5.82;;;3.15;;
55288;SDS011;41154;45.394;5.734;2024-03-23T00:55:03;4.82;;;2.97;;
55288;SDS011;41154;45.394;5.734;2024-03-23T00:57:28;8.40;;;3.40;;
55288;SDS011;41154;45.394;5.734;2024-03-23T00:59:54;4.97;;;2.95;;
55288;SDS011;41154;45.394;5.734;2024-03-23T01:02:19;5.63;;;3.10;;
55288;SDS011;41154;45.394;5.734;2024-03-23T01:04:45;7.75;;;3.78;;
55288;SDS011;41154;45.394;5.734;2024-03-23T01:07:11;8.82;;;4.22;;
55288;SDS011;41154;45.394;5.734;2024-03-23T01:09:36;5.88;;;3.72;;
55288;SDS011;41154;45.394;5.734;2024-03-23T01:12:04;6.35;;;3.70;;
55288;SDS011;41154;45.394;5.734;2024-03-23T01:14:29;6.78;;;3.75;;
55288;SDS011;41154;45.394;5.734;2024-03-23T01:16:55;6.65;;;3.80;;
55288;SDS011;41154;45.394;5.734;2024-03-23T01:19:21;6.38;;;4.18;;
55288;SDS011;41154;45.394;5.734;2024-03-23T01:21:46;6.43;;;4.05;;
55288;SDS011;41154;45.394;5.734;2024-03-23T01:24:12;8.10;;;4.28;;
55288;SDS011;41154;45.394;5.734;2024-03-23T01:26:38;7.60;;;3.55;;
55288;SDS011;41154;45.394;5.734;2024-03-23T01:29:03;6.82;;;3.75;;
55288;SDS011;41154;45.394;5.734;2024-03-23T01:31:29;6.10;;;3.85;;
55288;SDS011;41154;45.394;5.734;2024-03-23T01:33:54;6.85;;;4.25;;
55288;SDS011;41154;45.394;5.734;2024-03-23T01:36:19;9.30;;;4.40;;
55288;SDS011;41154;45.394;5.734;2024-03-23T01:38:45;7.68;;;4.22;;
55288;SDS011;41154;45.394;5.734;2024-03-23T01:41:11;7.50;;;3.85;;
55288;SDS011;41154;45.394;5.734;2024-03-23T01:43:36;5.15;;;3.28;;
55288;SDS011;41154;45.394;5.734;2024-03-23T01:46:02;7.93;;;4.00;;
55288;SDS011;41154;45.394;5.734;2024-03-23T01:48:27;6.95;;;4.10;;
55288;SDS011;41154;45.394;5.734;2024-03-23T01:50:53;8.65;;;4.35;;
55288;SDS011;41154;45.394;5.734;2024-03-23T01:53:19;4.75;;;3.53;;
55288;SDS011;41154;45.394;5.734;2024-03-23T01:55:47;9.25;;;4.18;;
55288;SDS011;41154;45.394;5.734;2024-03-23T01:58:13;6.80;;;3.60;;
55288;SDS011;41154;45.394;5.734;2024-03-23T02:00:38;7.22;;;4.00;;
55288;SDS011;41154;45.394;5.734;2024-03-23T02:03:21;6.57;;;3.80;;
55288;SDS011;41154;45.394;5.734;2024-03-23T02:05:47;6.65;;;4.10;;
55288;SDS011;41154;45.394;5.734;2024-03-23T02:08:12;11.07;;;4.38;;
55288;SDS011;41154;45.394;5.734;2024-03-23T02:10:38;7.60;;;4.32;;
55288;SDS011;41154;45.394;5.734;2024-03-23T02:13:03;8.05;;;4.10;;
55288;SDS011;41154;45.394;5.734;2024-03-23T02:15:29;9.25;;;4.65;;
55288;SDS011;41154;45.394;5.734;2024-03-23T02:17:54;13.27;;;5.90;;
55288;SDS011;41154;45.394;5.734;2024-03-23T02:20:20;7.70;;;4.07;;
55288;SDS011;41154;45.394;5.734;2024-03-23T02:22:45;6.32;;;3.88;;
55288;SDS011;41154;45.394;5.734;2024-03-23T02:25:11;10.32;;;5.35;;
55288;SDS011;41154;45.394;5.734;2024-03-23T02:27:36;10.10;;;5.07;;
55288;SDS011;41154;45.394;5.734;2024-03-23T02:30:04;9.07;;;4.72;;
55288;SDS011;41154;45.394;5.734;2024-03-23T02:32:30;8.75;;;4.82;;
55288;SDS011;41154;45.394;5.734;2024-03-23T02:34:56;9.13;;;4.47;;
55288;SDS011;41154;45.394;5.734;2024-03-23T02:37:22;11.25;;;5.78;;
55288;SDS011;41154;45.394;5.734;2024-03-23T02:39:47;8.88;;;5.60;;
55288;SDS011;41154;45.394;5.734;2024-03-23T02:42:13;13.70;;;5.63;;
55288;SDS011;41154;45.394;5.734;2024-03-23T02:44:38;10.75;;;5.93;;
55288;SDS011;41154;45.394;5.734;2024-03-23T02:47:04;9.57;;;5.43;;
55288;SDS011;41154;45.394;5.734;2024-03-23T02:49:29;14.02;;;6.35;;
55288;SDS011;41154;45.394;5.734;2024-03-23T02:51:55;16.13;;;5.90;;
55288;SDS011;41154;45.394;5.734;2024-03-23T02:54:20;12.32;;;7.43;;
55288;SDS011;41154;45.394;5.734;2024-03-23T02:56:46;15.25;;;6.78;;
55288;SDS011;41154;45.394;5.734;2024-03-23T02:59:11;8.73;;;5.43;;
55288;SDS011;41154;45.394;5.734;2024-03-23T03:01:37;14.38;;;5.10;;
55288;SDS011;41154;45.394;5.734;2024-03-23T03:04:02;10.50;;;4.38;;
55288;SDS011;41154;45.394;5.734;2024-03-23T03:06:31;8.25;;;4.72;;
55288;SDS011;41154;45.394;5.734;2024-03-23T03:08:56;9.23;;;4.82;;
55288;SDS011;41154;45.394;5.734;2024-03-23T03:11:23;6.07;;;4.15;;
55288;SDS011;41154;45.394;5.734;2024-03-23T03:13:48;7.05;;;4.03;;
55288;SDS011;41154;45.394;5.734;2024-03-23T03:16:14;9.65;;;4.28;;
55288;SDS011;41154;45.394;5.734;2024-03-23T03:18:39;9.52;;;4.40;;
55288;SDS011;41154;45.394;5.734;2024-03-23T03:21:08;10.88;;;4.78;;
55288;SDS011;41154;45.394;5.734;2024-03-23T03:23:36;8.85;;;5.07;;
55288;SDS011;41154;45.394;5.734;2024-03-23T03:26:03;8.30;;;4.70;;
55288;SDS011;41154;45.394;5.734;2024-03-23T03:28:28;9.23;;;4.45;;
55288;SDS011;41154;45.394;5.734;2024-03-23T03:30:57;7.88;;;4.50;;
55288;SDS011;41154;45.394;5.734;2024-03-23T03:33:22;10.60;;;4.35;;
55288;SDS011;41154;45.394;5.734;2024-03-23T03:35:48;5.97;;;3.90;;
55288;SDS011;41154;45.394;5.734;2024-03-23T03:38:14;6.13;;;4.07;;
55288;SDS011;41154;45.394;5.734;2024-03-23T03:40:41;8.07;;;3.85;;
55288;SDS011;41154;45.394;5.734;2024-03-23T03:43:07;8.25;;;3.60;;
55288;SDS011;41154;45.394;5.734;2024-03-23T03:45:32;6.45;;;3.33;;
55288;SDS011;41154;45.394;5.734;2024-03-23T03:47:59;5.13;;;3.30;;
55288;SDS011;41154;45.394;5.734;2024-03-23T03:50:25;5.85;;;3.10;;
55288;SDS011;41154;45.394;5.734;2024-03-23T03:52:50;5.53;;;3.30;;
55288;SDS011;41154;45.394;5.734;2024-03-23T03:55:16;4.53;;;2.97;;
55288;SDS011;41154;45.394;5.734;2024-03-23T03:57:42;4.00;;;2.63;;
55288;SDS011;41154;45.394;5.734;2024-03-23T04:00:07;5.32;;;2.92;;
55288;SDS011;41154;45.394;5.734;2024-03-23T04:02:39;4.65;;;2.72;;
55288;SDS011;41154;45.394;5.734;2024-03-23T04:05:05;5.65;;;3.03;;
55288;SDS011;41154;45.394;5.734;2024-03-23T04:07:30;6.35;;;2.80;;
55288;SDS011;41154;45.394;5.734;2024-03-23T04:09:56;3.63;;;2.88;;
55288;SDS011;41154;45.394;5.734;2024-03-23T04:12:21;6.20;;;2.78;;
55288;SDS011;41154;45.394;5.734;2024-03-23T04:14:47;3.80;;;2.60;;
55288;SDS011;41154;45.394;5.734;2024-03-23T04:17:12;6.38;;;3.13;;
55288;SDS011;41154;45.394;5.734;2024-03-23T04:19:38;3.97;;;2.88;;
55288;SDS011;41154;45.394;5.734;2024-03-23T04:22:04;4.57;;;2.80;;
55288;SDS011;41154;45.394;5.734;2024-03-23T04:24:30;5.07;;;2.72;;
55288;SDS011;41154;45.394;5.734;2024-03-23T04:26:55;6.25;;;2.92;;
55288;SDS011;41154;45.394;5.734;2024-03-23T04:29:21;5.57;;;2.90;;
55288;SDS011;41154;45.394;5.734;2024-03-23T04:31:47;9.20;;;2.90;;
55288;SDS011;41154;45.394;5.734;2024-03-23T04:34:13;6.60;;;2.90;;
55288;SDS011;41154;45.394;5.734;2024-03-23T04:36:38;3.90;;;2.88;;
55288;SDS011;41154;45.394;5.734;2024-03-23T04:39:05;4.93;;;2.97;;
55288;SDS011;41154;45.394;5.734;2024-03-23T04:41:33;7.32;;;2.78;;
55288;SDS011;41154;45.394;5.734;2024-03-23T04:43:59;6.70;;;3.10;;
55288;SDS011;41154;45.394;5.734;2024-03-23T04:46:25;5.93;;;3.10;;
55288;SDS011;41154;45.394;5.734;2024-03-23T04:48:50;5.15;;;3.10;;
55288;SDS011;41154;45.394;5.734;2024-03-23T04:51:25;9.75;;;4.18;;
55288;SDS011;41154;45.394;5.734;2024-03-23T04:56:17;5.85;;;3.50;;
55288;SDS011;41154;45.394;5.734;2024-03-23T04:58:43;8.23;;;3.83;;
55288;SDS011;41154;45.394;5.734;2024-03-23T05:01:10;8.73;;;3.90;;
55288;SDS011;41154;45.394;5.734;2024-03-23T05:03:37;6.35;;;3.67;;
55288;SDS011;41154;45.394;5.734;2024-03-23T05:06:02;5.93;;;3.35;;
55288;SDS011;41154;45.394;5.734;2024-03-23T05:08:28;6.75;;;3.40;;
55288;SDS011;41154;45.394;5.734;2024-03-23T05:10:54;4.38;;;2.90;;
55288;SDS011;41154;45.394;5.734;2024-03-23T05:13:19;5.57;;;3.20;;
55288;SDS011;41154;45.394;5.734;2024-03-23T05:15:50;9.63;;;3.53;;
55288;SDS011;41154;45.394;5.734;2024-03-23T05:18:16;7.38;;;3.35;;
55288;SDS011;41154;45.394;5.734;2024-03-23T05:20:41;4.93;;;3.53;;
55288;SDS011;41154;45.394;5.734;2024-03-23T05:23:07;7.93;;;3.67;;
55288;SDS011;41154;45.394;5.734;2024-03-23T05:25:32;8.48;;;3.38;;
55288;SDS011;41154;45.394;5.734;2024-03-23T05:27:59;6.13;;;3.53;;
55288;SDS011;41154;45.394;5.734;2024-03-23T05:30:25;7.82;;;3.28;;
55288;SDS011;41154;45.394;5.734;2024-03-23T05:32:50;8.30;;;3.42;;
55288;SDS011;41154;45.394;5.734;2024-03-23T05:35:16;6.03;;;3.15;;
55288;SDS011;41154;45.394;5.734;2024-03-23T05:37:42;4.57;;;3.30;;
55288;SDS011;41154;45.394;5.734;2024-03-23T05:40:07;6.03;;;3.10;;
55288;SDS011;41154;45.394;5.734;2024-03-23T05:42:34;5.63;;;3.10;;
55288;SDS011;41154;45.394;5.734;2024-03-23T05:45:00;6.22;;;2.95;;
55288;SDS011;41154;45.394;5.734;2024-03-23T05:47:25;7.47;;;3.22;;
55288;SDS011;41154;45.394;5.734;2024-03-23T05:49:51;6.65;;;3.28;;
55288;SDS011;41154;45.394;5.734;2024-03-23T05:52:17;6.20;;;3.47;;
55288;SDS011;41154;45.394;5.734;2024-03-23T05:54:43;7.22;;;3.20;;
55288;SDS011;41154;45.394;5.734;2024-03-23T05:57:09;10.95;;;3.75;;
55288;SDS011;41154;45.394;5.734;2024-03-23T05:59:34;7.03;;;3.65;;
55288;SDS011;41154;45.394;5.734;2024-03-23T06:02:00;7.20;;;3.75;;
55288;SDS011;41154;45.394;5.734;2024-03-23T06:04:25;4.72;;;3.17;;
55288;SDS011;41154;45.394;5.734;2024-03-23T06:06:52;7.85;;;3.95;;
55288;SDS011;41154;45.394;5.734;2024-03-23T06:09:18;5.82;;;3.22;;
55288;SDS011;41154;45.394;5.734;2024-03-23T06:11:44;7.43;;;3.78;;
55288;SDS011;41154;45.394;5.734;2024-03-23T06:14:10;7.10;;;3.45;;
55288;SDS011;41154;45.394;5.734;2024-03-23T06:16:35;5.97;;;3.75;;
55288;SDS011;41154;45.394;5.734;2024-03-23T06:19:01;6.90;;;3.80;;
55288;SDS011;41154;45.394;5.734;2024-03-23T06:21:29;7.57;;;3.83;;
55288;SDS011;41154;45.394;5.734;2024-03-23T06:23:54;5.82;;;4.05;;
55288;SDS011;41154;45.394;5.734;2024-03-23T06:26:20;7.00;;;4.05;;
55288;SDS011;41154;45.394;5.734;2024-03-23T06:28:46;8.45;;;4.00;;
55288;SDS011;41154;45.394;5.734;2024-03-23T06:31:11;5.47;;;3.47;;
55288;SDS011;41154;45.394;5.734;2024-03-23T06:33:37;5.78;;;3.95;;
55288;SDS011;41154;45.394;5.734;2024-03-23T06:36:04;6.20;;;3.95;;
55288;SDS011;41154;45.394;5.734;2024-03-23T06:38:29;6.60;;;3.50;;
55288;SDS011;41154;45.394;5.734;2024-03-23T06:40:55;5.35;;;3.35;;
55288;SDS011;41154;45.394;5.734;2024-03-23T06:43:21;8.23;;;4.28;;
55288;SDS011;41154;45.394;5.734;2024-03-23T06:45:53;8.65;;;5.60;;
55288;SDS011;41154;45.394;5.734;2024-03-23T06:48:18;6.57;;;3.67;;
55288;SDS011;41154;45.394;5.734;2024-03-23T06:50:45;6.93;;;3.70;;
55288;SDS011;41154;45.394;5.734;2024-03-23T06:53:11;5.07;;;3.45;;
55288;SDS011;41154;45.394;5.734;2024-03-23T06:55:37;7.18;;;3.70;;
55288;SDS011;41154;45.394;5.734;2024-03-23T06:58:02;7.30;;;3.80;;
55288;SDS011;41154;45.394;5.734;2024-03-23T07:00:29;9.55;;;5.20;;
55288;SDS011;41154;45.394;5.734;2024-03-23T07:02:54;14.48;;;4.90;;
55288;SDS011;41154;45.394;5.734;2024-03-23T07:05:20;7.57;;;4.20;;
55288;SDS011;41154;45.394;5.734;2024-03-23T07:07:46;7.78;;;4.50;;
55288;SDS011;41154;45.394;5.734;2024-03-23T07:10:11;9.85;;;5.32;;
55288;SDS011;41154;45.394;5.734;2024-03-23T07:12:37;6.82;;;4.65;;
55288;SDS011;41154;45.394;5.734;2024-03-23T07:15:02;8.30;;;5.10;;
55288;SDS011;41154;45.394;5.734;2024-03-23T07:17:28;8.27;;;4.93;;
55288;SDS011;41154;45.394;5.734;2024-03-23T07:19:54;6.82;;;4.55;;
55288;SDS011;41154;45.394;5.734;2024-03-23T07:22:19;8.82;;;5.20;;
55288;SDS011;41154;45.394;5.734;2024-03-23T07:24:44;7.53;;;5.00;;
55288;SDS011;41154;45.394;5.734;2024-03-23T07:27:10;8.60;;;5.45;;
55288;SDS011;41154;45.394;5.734;2024-03-23T07:29:36;13.68;;;6.82;;
55288;SDS011;41154;45.394;5.734;2024-03-23T07:32:01;9.38;;;6.15;;
55288;SDS011;41154;45.394;5.734;2024-03-23T07:34:27;10.48;;;5.82;;
55288;SDS011;41154;45.394;5.734;2024-03-23T07:36:53;8.27;;;5.57;;
55288;SDS011;41154;45.394;5.734;2024-03-23T07:39:18;7.30;;;4.90;;
55288;SDS011;41154;45.394;5.734;2024-03-23T07:41:44;6.93;;;4.78;;
55288;SDS011;41154;45.394;5.734;2024-03-23T07:44:10;10.02;;;5.68;;
55288;SDS011;41154;45.394;5.734;2024-03-23T07:46:35;8.00;;;5.30;;
55288;SDS011;41154;45.394;5.734;2024-03-23T07:49:01;8.57;;;4.70;;
55288;SDS011;41154;45.394;5.734;2024-03-23T07:51:27;8.75;;;4.80;;
55288;SDS011;41154;45.394;5.734;2024-03-23T07:53:52;8.95;;;4.75;;
55288;SDS011;41154;45.394;5.734;2024-03-23T07:56:18;8.02;;;5.78;;
55288;SDS011;41154;45.394;5.734;2024-03-23T07:58:45;7.43;;;5.45;;
55288;SDS011;41154;45.394;5.734;2024-03-23T08:01:11;8.82;;;5.68;;
55288;SDS011;41154;45.394;5.734;2024-03-23T08:03:37;5.47;;;4.53;;
55288;SDS011;41154;45.394;5.734;2024-03-23T08:06:16;8.35;;;5.03;;
55288;SDS011;41154;45.394;5.734;2024-03-23T08:08:42;8.30;;;5.30;;
55288;SDS011;41154;45.394;5.734;2024-03-23T08:11:08;7.90;;;5.47;;
55288;SDS011;41154;45.394;5.734;2024-03-23T08:13:34;8.10;;;5.57;;
55288;SDS011;41154;45.394;5.734;2024-03-23T08:16:00;8.80;;;5.63;;
55288;SDS011;41154;45.394;5.734;2024-03-23T08:18:26;4.72;;;3.50;;
55288;SDS011;41154;45.394;5.734;2024-03-23T08:20:58;5.25;;;2.90;;
55288;SDS011;41154;45.394;5.734;2024-03-23T08:23:27;2.42;;;1.90;;
55288;SDS011;41154;45.394;5.734;2024-03-23T08:26:02;3.95;;;1.73;;
55288;SDS011;41154;45.394;5.734;2024-03-23T08:28:28;2.83;;;1.33;;
55288;SDS011;41154;45.394;5.734;2024-03-23T08:30:55;2.22;;;1.35;;
55288;SDS011;41154;45.394;5.734;2024-03-23T08:33:22;2.45;;;1.20;;
55288;SDS011;41154;45.394;5.734;2024-03-23T08:35:55;1.38;;;1.00;;
55288;SDS011;41154;45.394;5.734;2024-03-23T08:38:21;2.08;;;1.10;;
55288;SDS011;41154;45.394;5.734;2024-03-23T08:40:47;1.65;;;0.82;;
55288;SDS011;41154;45.394;5.734;2024-03-23T08:43:12;1.15;;;1.00;;
55288;SDS011;41154;45.394;5.734;2024-03-23T08:45:38;2.40;;;1.00;;
55288;SDS011;41154;45.394;5.734;2024-03-23T08:48:04;2.03;;;0.80;;
55288;SDS011;41154;45.394;5.734;2024-03-23T08:50:29;2.55;;;1.05;;
55288;SDS011;41154;45.394;5.734;2024-03-23T08:52:55;5.13;;;1.05;;
55288;SDS011;41154;45.394;5.734;2024-03-23T08:55:21;2.20;;;0.60;;
55288;SDS011;41154;45.394;5.734;2024-03-23T08:57:47;4.00;;;0.70;;
55288;SDS011;41154;45.394;5.734;2024-03-23T09:00:12;4.18;;;0.82;;
55288;SDS011;41154;45.394;5.734;2024-03-23T09:02:39;4.25;;;0.88;;
55288;SDS011;41154;45.394;5.734;2024-03-23T09:05:05;3.08;;;0.70;;
55288;SDS011;41154;45.394;5.734;2024-03-23T09:07:31;6.47;;;1.20;;
55288;SDS011;41154;45.394;5.734;2024-03-23T09:09:56;2.08;;;0.70;;
55288;SDS011;41154;45.394;5.734;2024-03-23T09:12:22;4.63;;;0.90;;
55288;SDS011;41154;45.394;5.734;2024-03-23T09:14:48;7.00;;;1.35;;
55288;SDS011;41154;45.394;5.734;2024-03-23T09:17:14;4.10;;;1.00;;
55288;SDS011;41154;45.394;5.734;2024-03-23T09:19:40;4.40;;;0.90;;
55288;SDS011;41154;45.394;5.734;2024-03-23T09:22:06;8.30;;;1.13;;
55288;SDS011;41154;45.394;5.734;2024-03-23T09:24:31;3.22;;;0.90;;
55288;SDS011;41154;45.394;5.734;2024-03-23T09:26:57;9.57;;;1.20;;
55288;SDS011;41154;45.394;5.734;2024-03-23T09:29:23;6.30;;;1.27;;
55288;SDS011;41154;45.394;5.734;2024-03-23T09:31:48;2.45;;;0.88;;
55288;SDS011;41154;45.394;5.734;2024-03-23T09:34:15;3.92;;;1.40;;
55288;SDS011;41154;45.394;5.734;2024-03-23T09:36:41;4.53;;;1.02;;
55288;SDS011;41154;45.394;5.734;2024-03-23T09:39:07;3.13;;;0.60;;
55288;SDS011;41154;45.394;5.734;2024-03-23T09:41:34;4.32;;;1.33;;
55288;SDS011;41154;45.394;5.734;2024-03-23T09:44:00;2.63;;;0.73;;
55288;SDS011;41154;45.394;5.734;2024-03-23T09:46:26;3.13;;;0.80;;
55288;SDS011;41154;45.394;5.734;2024-03-23T09:48:55;5.53;;;1.25;;
55288;SDS011;41154;45.394;5.734;2024-03-23T09:51:21;3.90;;;1.25;;
55288;SDS011;41154;45.394;5.734;2024-03-23T09:53:46;3.38;;;1.40;;
55288;SDS011;41154;45.394;5.734;2024-03-23T09:56:12;3.25;;;0.90;;
55288;SDS011;41154;45.394;5.734;2024-03-23T09:58:37;2.67;;;0.80;;
55288;SDS011;41154;45.394;5.734;2024-03-23T10:01:03;3.10;;;1.23;;
55288;SDS011;41154;45.394;5.734;2024-03-23T10:03:29;6.03;;;1.13;;
55288;SDS011;41154;45.394;5.734;2024-03-23T10:06:02;4.22;;;1.33;;
55288;SDS011;41154;45.394;5.734;2024-03-23T10:08:28;3.30;;;1.20;;
55288;SDS011;41154;45.394;5.734;2024-03-23T10:10:54;6.65;;;1.40;;
55288;SDS011;41154;45.394;5.734;2024-03-23T10:13:26;6.13;;;1.33;;
55288;SDS011;41154;45.394;5.734;2024-03-23T10:15:55;7.15;;;2.15;;
55288;SDS011;41154;45.394;5.734;2024-03-23T10:18:22;6.63;;;1.33;;
55288;SDS011;41154;45.394;5.734;2024-03-23T10:21:00;7.25;;;0.98;;
55288;SDS011;41154;45.394;5.734;2024-03-23T10:23:40;3.65;;;1.10;;
55288;SDS011;41154;45.394;5.734;2024-03-23T10:26:19;5.78;;;1.48;;
55288;SDS011;41154;45.394;5.734;2024-03-23T10:28:51;4.88;;;1.00;;
55288;SDS011;41154;45.394;5.734;2024-03-23T10:31:17;3.63;;;1.17;;
55288;SDS011;41154;45.394;5.734;2024-03-23T10:33:46;4.25;;;1.13;;
55288;SDS011;41154;45.394;5.734;2024-03-23T10:36:12;6.22;;;1.23;;
55288;SDS011;41154;45.394;5.734;2024-03-23T10:38:42;4.63;;;1.20;;
55288;SDS011;41154;45.394;5.734;2024-03-23T10:41:11;8.13;;;1.50;;
55288;SDS011;41154;45.394;5.734;2024-03-23T10:43:37;6.03;;;1.60;;
55288;SDS011;41154;45.394;5.734;2024-03-23T10:46:03;8.35;;;1.20;;
55288;SDS011;41154;45.394;5.734;2024-03-23T10:48:29;1.70;;;0.82;;
55288;SDS011;41154;45.394;5.734;2024-03-23T10:50:54;6.70;;;1.13;;
55288;SDS011;41154;45.394;5.734;2024-03-23T10:53:25;5.57;;;1.00;;
55288;SDS011;41154;45.394;5.734;2024-03-23T10:55:50;5.72;;;1.23;;
55288;SDS011;41154;45.394;5.734;2024-03-23T10:58:17;5.95;;;1.02;;
55288;SDS011;41154;45.394;5.734;2024-03-23T11:00:43;5.60;;;1.95;;
55288;SDS011;41154;45.394;5.734;2024-03-23T11:05:52;3.08;;;0.85;;
55288;SDS011;41154;45.394;5.734;2024-03-23T11:11:17;7.97;;;1.83;;
55288;SDS011;41154;45.394;5.734;2024-03-23T11:13:44;8.05;;;1.45;;
55288;SDS011;41154;45.394;5.734;2024-03-23T11:16:13;7.07;;;1.40;;
55288;SDS011;41154;45.394;5.734;2024-03-23T11:18:39;5.93;;;1.40;;
55288;SDS011;41154;45.394;5.734;2024-03-23T11:21:06;10.98;;;1.52;;
55288;SDS011;41154;45.394;5.734;2024-03-23T11:23:32;8.57;;;1.42;;
55288;SDS011;41154;45.394;5.734;2024-03-23T11:25:58;7.50;;;1.35;;
55288;SDS011;41154;45.394;5.734;2024-03-23T11:28:23;8.23;;;1.83;;
55288;SDS011;41154;45.394;5.734;2024-03-23T11:30:49;9.18;;;1.42;;
55288;SDS011;41154;45.394;5.734;2024-03-23T11:33:14;6.60;;;1.98;;
55288;SDS011;41154;45.394;5.734;2024-03-23T11:35:41;4.75;;;1.67;;
55288;SDS011;41154;45.394;5.734;2024-03-23T11:38:10;5.30;;;1.52;;
55288;SDS011;41154;45.394;5.734;2024-03-23T11:40:40;8.18;;;1.38;;
55288;SDS011;41154;45.394;5.734;2024-03-23T11:43:09;6.57;;;1.90;;
55288;SDS011;41154;45.394;5.734;2024-03-23T11:48:12;11.55;;;1.67;;
55288;SDS011;41154;45.394;5.734;2024-03-23T11:50:41;8.63;;;1.70;;
55288;SDS011;41154;45.394;5.734;2024-03-23T11:55:48;5.70;;;1.70;;
55288;SDS011;41154;45.394;5.734;2024-03-23T11:58:14;6.65;;;1.27;;
55288;SDS011;41154;45.394;5.734;2024-03-23T12:00:40;4.68;;;1.40;;
55288;SDS011;41154;45.394;5.734;2024-03-23T12:03:06;4.00;;;1.73;;
55288;SDS011;41154;45.394;5.734;2024-03-23T12:05:32;3.75;;;1.30;;
55288;SDS011;41154;45.394;5.734;2024-03-23T12:08:59;4.57;;;1.20;;
55288;SDS011;41154;45.394;5.734;2024-03-23T12:13:36;10.55;;;1.45;;
55288;SDS011;41154;45.394;5.734;2024-03-23T12:16:10;7.50;;;1.30;;
55288;SDS011;41154;45.394;5.734;2024-03-23T12:18:36;10.35;;;1.77;;
55288;SDS011;41154;45.394;5.734;2024-03-23T12:21:02;8.20;;;1.77;;
55288;SDS011;41154;45.394;5.734;2024-03-23T12:23:27;4.70;;;1.15;;
55288;SDS011;41154;45.394;5.734;2024-03-23T12:25:53;6.50;;;1.63;;
55288;SDS011;41154;45.394;5.734;2024-03-23T12:28:19;7.15;;;1.30;;
55288;SDS011;41154;45.394;5.734;2024-03-23T12:30:44;6.15;;;1.58;;
55288;SDS011;41154;45.394;5.734;2024-03-23T12:33:09;6.85;;;1.35;;
55288;SDS011;41154;45.394;5.734;2024-03-23T12:35:35;7.45;;;1.40;;
55288;SDS011;41154;45.394;5.734;2024-03-23T12:38:00;8.55;;;1.40;;
55288;SDS011;41154;45.394;5.734;2024-03-23T12:40:26;8.85;;;1.92;;
55288;SDS011;41154;45.394;5.734;2024-03-23T12:42:55;5.65;;;1.30;;
55288;SDS011;41154;45.394;5.734;2024-03-23T12:45:21;4.80;;;1.35;;
55288;SDS011;41154;45.394;5.734;2024-03-23T12:47:47;6.85;;;1.45;;
55288;SDS011;41154;45.394;5.734;2024-03-23T12:50:13;7.72;;;1.55;;
55288;SDS011;41154;45.394;5.734;2024-03-23T12:52:38;6.25;;;2.28;;
55288;SDS011;41154;45.394;5.734;2024-03-23T12:55:04;6.28;;;1.17;;
55288;SDS011;41154;45.394;5.734;2024-03-23T12:57:33;5.70;;;1.40;;
55288;SDS011;41154;45.394;5.734;2024-03-23T12:59:58;5.75;;;1.30;;
55288;SDS011;41154;45.394;5.734;2024-03-23T13:02:24;4.45;;;2.05;;
55288;SDS011;41154;45.394;5.734;2024-03-23T13:04:50;8.93;;;1.90;;
55288;SDS011;41154;45.394;5.734;2024-03-23T13:07:16;5.53;;;1.70;;
55288;SDS011;41154;45.394;5.734;2024-03-23T13:09:41;6.72;;;1.25;;
55288;SDS011;41154;45.394;5.734;2024-03-23T13:12:08;4.63;;;1.30;;
55288;SDS011;41154;45.394;5.734;2024-03-23T13:14:34;6.45;;;1.23;;
55288;SDS011;41154;45.394;5.734;2024-03-23T13:17:00;6.07;;;2.08;;
55288;SDS011;41154;45.394;5.734;2024-03-23T13:19:27;4.05;;;1.30;;
55288;SDS011;41154;45.394;5.734;2024-03-23T13:21:56;7.40;;;1.95;;
55288;SDS011;41154;45.394;5.734;2024-03-23T13:27:50;8.70;;;1.30;;
55288;SDS011;41154;45.394;5.734;2024-03-23T13:40:12;7.78;;;1.20;;
55288;SDS011;41154;45.394;5.734;2024-03-23T13:42:38;7.45;;;1.40;;
55288;SDS011;41154;45.394;5.734;2024-03-23T13:45:03;9.00;;;1.20;;
55288;SDS011;41154;45.394;5.734;2024-03-23T13:47:30;6.00;;;1.30;;
55288;SDS011;41154;45.394;5.734;2024-03-23T13:49:56;6.18;;;1.30;;
55288;SDS011;41154;45.394;5.734;2024-03-23T13:52:21;4.82;;;1.15;;
55288;SDS011;41154;45.394;5.734;2024-03-23T13:54:51;7.13;;;1.13;;
55288;SDS011;41154;45.394;5.734;2024-03-23T13:57:17;6.97;;;1.20;;
55288;SDS011;41154;45.394;5.734;2024-03-23T13:59:45;5.13;;;1.08;;
55288;SDS011;41154;45.394;5.734;2024-03-23T14:02:11;6.53;;;1.17;;
55288;SDS011;41154;45.394;5.734;2024-03-23T14:04:39;4.55;;;1.38;;
55288;SDS011;41154;45.394;5.734;2024-03-23T14:07:05;6.38;;;1.50;;
55288;SDS011;41154;45.394;5.734;2024-03-23T14:09:32;7.53;;;1.70;;
55288;SDS011;41154;45.394;5.734;2024-03-23T14:11:58;4.53;;;1.05;;
55288;SDS011;41154;45.394;5.734;2024-03-23T14:14:25;4.78;;;1.33;;
55288;SDS011;41154;45.394;5.734;2024-03-23T14:16:51;4.97;;;1.02;;
55288;SDS011;41154;45.394;5.734;2024-03-23T14:19:16;5.78;;;1.40;;
55288;SDS011;41154;45.394;5.734;2024-03-23T14:21:42;5.32;;;1.10;;
55288;SDS011;41154;45.394;5.734;2024-03-23T14:24:07;4.93;;;1.42;;
55288;SDS011;41154;45.394;5.734;2024-03-23T14:26:34;5.25;;;1.45;;
55288;SDS011;41154;45.394;5.734;2024-03-23T14:29:00;4.53;;;1.13;;
55288;SDS011;41154;45.394;5.734;2024-03-23T14:31:27;5.63;;;1.05;;
55288;SDS011;41154;45.394;5.734;2024-03-23T14:33:52;3.88;;;0.77;;
55288;SDS011;41154;45.394;5.734;2024-03-23T14:36:18;5.22;;;1.10;;
55288;SDS011;41154;45.394;5.734;2024-03-23T14:38:49;4.22;;;1.65;;
55288;SDS011;41154;45.394;5.734;2024-03-23T14:41:15;4.82;;;1.25;;
55288;SDS011;41154;45.394;5.734;2024-03-23T14:43:41;4.55;;;0.77;;
55288;SDS011;41154;45.394;5.734;2024-03-23T14:46:09;5.03;;;1.30;;
55288;SDS011;41154;45.394;5.734;2024-03-23T14:48:46;8.10;;;1.50;;
55288;SDS011;41154;45.394;5.734;2024-03-23T14:51:12;5.53;;;1.20;;
55288;SDS011;41154;45.394;5.734;2024-03-23T14:53:40;3.80;;;1.20;;
55288;SDS011;41154;45.394;5.734;2024-03-23T14:56:06;3.92;;;1.38;;
55288;SDS011;41154;45.394;5.734;2024-03-23T14:58:32;4.95;;;2.13;;
55288;SDS011;41154;45.394;5.734;2024-03-23T15:01:01;4.95;;;1.50;;
55288;SDS011;41154;45.394;5.734;2024-03-23T15:03:27;5.60;;;0.70;;
55288;SDS011;41154;45.394;5.734;2024-03-23T15:05:53;54.95;;;19.98;;
55288;SDS011;41154;45.394;5.734;2024-03-23T15:08:19;62.38;;;20.55;;
55288;SDS011;41154;45.394;5.734;2024-03-23T15:10:45;5.40;;;1.20;;
55288;SDS011;41154;45.394;5.734;2024-03-23T15:13:10;2.72;;;0.70;;
55288;SDS011;41154;45.394;5.734;2024-03-23T15:15:39;2.63;;;1.02;;
55288;SDS011;41154;45.394;5.734;2024-03-23T15:18:06;3.50;;;1.20;;
55288;SDS011;41154;45.394;5.734;2024-03-23T15:20:32;5.75;;;0.77;;
55288;SDS011;41154;45.394;5.734;2024-03-23T15:23:02;3.80;;;0.93;;
55288;SDS011;41154;45.394;5.734;2024-03-23T15:25:28;2.20;;;0.70;;
55288;SDS011;41154;45.394;5.734;2024-03-23T15:27:53;3.55;;;0.70;;
55288;SDS011;41154;45.394;5.734;2024-03-23T15:30:20;4.50;;;1.48;;
55288;SDS011;41154;45.394;5.734;2024-03-23T15:32:45;2.65;;;0.80;;
55288;SDS011;41154;45.394;5.734;2024-03-23T15:35:11;5.05;;;1.00;;
55288;SDS011;41154;45.394;5.734;2024-03-23T15:37:37;4.65;;;1.25;;
55288;SDS011;41154;45.394;5.734;2024-03-23T15:40:04;8.00;;;1.13;;
55288;SDS011;41154;45.394;5.734;2024-03-23T15:42:30;7.88;;;1.00;;
55288;SDS011;41154;45.394;5.734;2024-03-23T15:44:55;4.88;;;1.10;;
55288;SDS011;41154;45.394;5.734;2024-03-23T15:47:21;3.80;;;0.90;;
55288;SDS011;41154;45.394;5.734;2024-03-23T15:49:49;3.25;;;0.60;;
55288;SDS011;41154;45.394;5.734;2024-03-23T15:52:15;7.03;;;1.17;;
55288;SDS011;41154;45.394;5.734;2024-03-23T15:54:42;10.35;;;7.13;;
55288;SDS011;41154;45.394;5.734;2024-03-23T15:57:08;5.88;;;3.53;;
55288;SDS011;41154;45.394;5.734;2024-03-23T15:59:34;3.03;;;0.88;;
55288;SDS011;41154;45.394;5.734;2024-03-23T16:02:03;10.23;;;7.70;;